createdAt,value
2022-08-25T00:01:55.414Z,101279.41
2022-08-25T00:04:23.757Z,101275.50
2022-08-25T00:06:50.951Z,101274.56
2022-08-25T00:09:21.179Z,101276.63
2022-08-25T00:11:49.286Z,101279.78
2022-08-25T00:14:37.213Z,101286.69
2022-08-25T00:17:05.028Z,101290.47
2022-08-25T00:19:35.388Z,101289.53
2022-08-25T00:22:03.062Z,101290.63
2022-08-25T00:24:30.365Z,101291.91
2022-08-25T00:26:58.870Z,101287.34
2022-08-25T00:29:26.644Z,101282.81
2022-08-25T00:31:54.910Z,101287.84
2022-08-25T00:34:29.632Z,101280.78
2022-08-25T00:36:56.462Z,101292.25
2022-08-25T00:39:24.300Z,101298.06
2022-08-25T00:41:53.937Z,101286.44
2022-08-25T00:44:20.816Z,101293.81
2022-08-25T00:46:50.527Z,101290.38
2022-08-25T00:49:28.800Z,101291.78
2022-08-25T00:52:20.215Z,101281.44
2022-08-25T00:54:46.760Z,101292.56
2022-08-25T00:57:16.916Z,101286.31
2022-08-25T00:59:44.436Z,101285.97
2022-08-25T01:02:13.966Z,101295.38
2022-08-25T01:04:45.868Z,101286.59
2022-08-25T01:07:18.579Z,101290.03
2022-08-25T01:09:47.831Z,101279.84
2022-08-25T01:12:15.084Z,101292.41
2022-08-25T01:14:44.612Z,101288.78
2022-08-25T01:17:11.656Z,101284.53
2022-08-25T01:19:38.206Z,101287.34
2022-08-25T01:22:05.692Z,101280.00
2022-08-25T01:24:52.702Z,101281.25
2022-08-25T01:27:19.248Z,101280.31
2022-08-25T01:29:45.875Z,101285.00
2022-08-25T01:32:14.839Z,101286.72
2022-08-25T01:34:44.383Z,101288.44
2022-08-25T01:37:13.616Z,101287.03
2022-08-25T01:39:41.364Z,101287.03
2022-08-25T01:42:09.202Z,101276.50
2022-08-25T01:44:40.150Z,101279.50
2022-08-25T01:47:07.758Z,101273.97
2022-08-25T01:49:34.945Z,101281.69
2022-08-25T01:52:17.319Z,101279.78
2022-08-25T01:54:44.017Z,101285.09
2022-08-25T01:57:10.703Z,101283.66
2022-08-25T01:59:37.982Z,101285.84
2022-08-25T02:02:06.237Z,101287.13
2022-08-25T02:04:33.145Z,101279.69
2022-08-25T02:07:03.848Z,101279.22
2022-08-25T02:09:30.652Z,101281.75
2022-08-25T02:11:58.149Z,101279.38
2022-08-25T02:14:25.208Z,101281.56
2022-08-25T02:16:54.091Z,101273.88
2022-08-25T02:19:22.658Z,101284.81
2022-08-25T02:21:49.233Z,101278.53
2022-08-25T02:24:15.941Z,101290.72
2022-08-25T02:26:43.496Z,101288.03
2022-08-25T02:29:10.727Z,101289.44
2022-08-25T02:31:37.434Z,101297.56
2022-08-25T02:34:04.971Z,101292.09
2022-08-25T02:36:32.319Z,101286.59
2022-08-25T02:38:59.016Z,101289.41
2022-08-25T02:41:31.366Z,101285.94
2022-08-25T02:44:00.017Z,101290.78
2022-08-25T02:46:27.529Z,101294.84
2022-08-25T02:48:54.495Z,101296.56
2022-08-25T02:51:23.018Z,101295.59
2022-08-25T02:53:49.994Z,101293.69
2022-08-25T02:56:18.979Z,101300.59
2022-08-25T02:58:45.936Z,101289.13
2022-08-25T03:01:14.290Z,101291.59
2022-08-25T03:03:43.691Z,101286.88
2022-08-25T03:06:14.748Z,101289.72
2022-08-25T03:08:42.635Z,101292.53
2022-08-25T03:11:09.943Z,101289.06
2022-08-25T03:13:37.218Z,101288.25
2022-08-25T03:16:05.551Z,101284.31
2022-08-25T03:18:38.994Z,101279.94
2022-08-25T03:21:05.517Z,101278.34
2022-08-25T03:23:32.382Z,101274.56
2022-08-25T03:26:17.748Z,101270.63
2022-08-25T03:28:44.354Z,101262.97
2022-08-25T03:31:11.320Z,101255.31
2022-08-25T03:33:38.496Z,101254.69
2022-08-25T03:36:06.364Z,101256.03
2022-08-25T03:38:32.995Z,101258.97
2022-08-25T03:40:59.819Z,101255.53
2022-08-25T03:43:26.390Z,101259.25
2022-08-25T03:45:52.993Z,101256.44
2022-08-25T03:48:19.758Z,101246.09
2022-08-25T03:50:52.251Z,101248.59
2022-08-25T03:53:20.337Z,101254.03
2022-08-25T03:55:47.644Z,101249.16
2022-08-25T03:58:14.753Z,101253.22
2022-08-25T04:00:42.204Z,101247.72
2022-08-25T04:03:08.850Z,101252.25
2022-08-25T04:05:35.389Z,101256.75
2022-08-25T04:08:02.257Z,101255.31
2022-08-25T04:10:31.515Z,101249.34
2022-08-25T04:12:58.203Z,101254.22
2022-08-25T04:15:30.060Z,101251.41
2022-08-25T04:17:58.858Z,101250.59
2022-08-25T04:20:25.997Z,101245.88
2022-08-25T04:22:53.035Z,101241.31
2022-08-25T04:25:19.663Z,101244.56
2022-08-25T04:27:46.161Z,101245.13
2022-08-25T04:30:13.582Z,101232.88
2022-08-25T04:32:40.207Z,101231.75
2022-08-25T04:35:07.565Z,101238.97
2022-08-25T04:37:34.535Z,101231.44
2022-08-25T04:40:01.661Z,101230.63
2022-08-25T04:42:28.648Z,101222.66
2022-08-25T04:44:55.257Z,101228.72
2022-08-25T04:47:22.096Z,101227.97
2022-08-25T04:49:48.792Z,101229.53
2022-08-25T04:52:15.710Z,101226.81
2022-08-25T04:54:43.733Z,101224.34
2022-08-25T04:57:10.580Z,101236.25
2022-08-25T04:59:37.338Z,101237.06
2022-08-25T05:02:05.426Z,101251.13
2022-08-25T05:04:34.413Z,101244.38
2022-08-25T05:07:02.057Z,101243.34
2022-08-25T05:09:28.626Z,101242.09
2022-08-25T05:11:58.912Z,101245.69
2022-08-25T05:14:26.733Z,101239.28
2022-08-25T05:16:55.048Z,101242.66
2022-08-25T05:19:23.670Z,101243.00
2022-08-25T05:21:50.215Z,101243.22
2022-08-25T05:24:16.855Z,101242.50
2022-08-25T05:26:43.420Z,101236.41
2022-08-25T05:29:10.957Z,101243.78
2022-08-25T05:31:42.349Z,101243.53
2022-08-25T05:34:10.050Z,101245.63
2022-08-25T05:36:37.144Z,101240.53
2022-08-25T05:39:04.445Z,101241.50
2022-08-25T05:41:31.170Z,101238.44
2022-08-25T05:43:58.970Z,101243.00
2022-08-25T05:46:26.077Z,101243.53
2022-08-25T05:48:54.368Z,101232.31
2022-08-25T05:51:21.178Z,101240.50
2022-08-25T05:53:50.520Z,101234.59
2022-08-25T05:56:18.514Z,101232.25
2022-08-25T05:58:46.293Z,101228.38
2022-08-25T06:01:57.692Z,101224.00
2022-08-25T06:04:24.673Z,101227.34
2022-08-25T06:06:53.894Z,101227.50
2022-08-25T06:09:24.239Z,101219.69
2022-08-25T06:11:54.686Z,101228.47
2022-08-25T06:14:22.721Z,101223.34
2022-08-25T06:16:51.468Z,101227.44
2022-08-25T06:19:18.906Z,101219.91
2022-08-25T06:21:45.553Z,101226.38
2022-08-25T06:24:15.342Z,101224.81
2022-08-25T06:26:42.156Z,101242.84
2022-08-25T06:29:08.610Z,101231.25
2022-08-25T06:31:35.371Z,101220.91
2022-08-25T06:34:02.046Z,101235.44
2022-08-25T06:36:28.560Z,101235.97
2022-08-25T06:38:55.163Z,101226.38
2022-08-25T06:41:21.654Z,101230.75
2022-08-25T06:43:51.824Z,101229.47
2022-08-25T06:46:35.840Z,101234.66
2022-08-25T06:49:05.540Z,101240.28
2022-08-25T06:51:32.295Z,101234.28
2022-08-25T06:54:00.224Z,101245.06
2022-08-25T06:56:26.750Z,101243.34
2022-08-25T06:58:53.391Z,101246.13
2022-08-25T07:01:23.617Z,101239.66
2022-08-25T07:03:57.335Z,101245.09
2022-08-25T07:06:25.350Z,101236.56
2022-08-25T07:08:51.887Z,101247.03
2022-08-25T07:11:21.349Z,101235.19
2022-08-25T07:13:49.074Z,101239.06
2022-08-25T07:16:16.664Z,101247.50
2022-08-25T07:18:44.591Z,101241.75
2022-08-25T07:21:13.351Z,101244.53
2022-08-25T07:23:41.413Z,101244.47
2022-08-25T07:26:36.864Z,101240.94
2022-08-25T07:29:17.332Z,101242.44
2022-08-25T07:31:45.094Z,101241.91
2022-08-25T07:34:30.431Z,101241.78
2022-08-25T07:36:57.895Z,101242.78
2022-08-25T07:39:25.161Z,101236.53
2022-08-25T07:41:52.647Z,101231.56
2022-08-25T07:44:21.620Z,101228.91
2022-08-25T07:46:50.300Z,101228.53
2022-08-25T07:49:18.276Z,101235.16
2022-08-25T07:52:05.708Z,101234.56
2022-08-25T07:54:35.237Z,101226.22
2022-08-25T07:57:03.786Z,101225.31
2022-08-25T07:59:30.999Z,101234.00
2022-08-25T08:02:17.665Z,101221.75
2022-08-25T08:04:48.324Z,101226.31
2022-08-25T08:07:20.373Z,101214.25
2022-08-25T08:09:53.122Z,101221.44
2022-08-25T08:12:23.409Z,101217.72
2022-08-25T08:14:51.439Z,101216.78
2022-08-25T08:17:18.265Z,101214.78
2022-08-25T08:19:45.328Z,101222.66
2022-08-25T08:22:16.972Z,101233.09
2022-08-25T08:24:54.598Z,101224.91
2022-08-25T08:27:23.418Z,101228.84
2022-08-25T08:29:50.115Z,101224.84
2022-08-25T08:32:17.915Z,101219.25
2022-08-25T08:34:46.558Z,101228.66
2022-08-25T08:37:18.549Z,101228.25
2022-08-25T08:39:47.841Z,101220.06
2022-08-25T08:42:23.193Z,101210.81
2022-08-25T08:45:27.208Z,101201.31
2022-08-25T08:48:10.245Z,101197.72
2022-08-25T08:50:49.838Z,101188.75
2022-08-25T08:53:27.498Z,101193.75
2022-08-25T08:56:07.006Z,101184.75
2022-08-25T08:58:52.057Z,101175.72
2022-08-25T09:01:31.575Z,101178.06
2022-08-25T09:04:16.630Z,101168.22
2022-08-25T09:06:49.507Z,101176.06
2022-08-25T09:09:39.161Z,101171.72
2022-08-25T09:12:31.617Z,101172.53
2022-08-25T09:15:47.493Z,101175.38
2022-08-25T09:18:29.483Z,101173.59
2022-08-25T09:21:16.155Z,101174.91
2022-08-25T09:24:11.903Z,101166.63
2022-08-25T09:26:42.859Z,101164.53
2022-08-25T09:29:16.512Z,101157.03
2022-08-25T09:31:43.779Z,101160.09
2022-08-25T09:34:19.779Z,101159.31
2022-08-25T09:36:48.670Z,101152.22
2022-08-25T09:39:15.406Z,101147.53
2022-08-25T09:41:53.303Z,101143.84
2022-08-25T09:44:21.929Z,101142.75
2022-08-25T09:47:02.264Z,101133.13
2022-08-25T09:49:37.644Z,101141.34
2022-08-25T09:52:42.315Z,101131.94
2022-08-25T09:55:08.845Z,101122.47
2022-08-25T09:57:42.606Z,101119.50
2022-08-25T10:00:19.892Z,101120.41
2022-08-25T10:03:05.641Z,101120.06
2022-08-25T10:05:35.526Z,101111.53
2022-08-25T10:08:14.725Z,101100.28
2022-08-25T10:10:53.106Z,101102.53
2022-08-25T10:13:23.608Z,101100.81
2022-08-25T10:16:20.600Z,101094.94
2022-08-25T10:19:03.116Z,101094.28
2022-08-25T10:21:29.884Z,101094.75
2022-08-25T10:23:57.402Z,101097.53
2022-08-25T10:26:33.023Z,101088.59
2022-08-25T10:29:11.830Z,101081.34
2022-08-25T10:31:52.598Z,101076.00
2022-08-25T10:34:35.659Z,101083.44
2022-08-25T10:37:43.915Z,101066.41
2022-08-25T10:40:28.791Z,101067.78
2022-08-25T10:43:16.604Z,101064.59
2022-08-25T10:45:51.256Z,101053.81
2022-08-25T10:48:46.462Z,101059.84
2022-08-25T10:51:25.777Z,101061.31
2022-08-25T10:54:06.926Z,101055.59
2022-08-25T10:56:40.150Z,101051.06
2022-08-25T10:59:21.349Z,101044.84
2022-08-25T11:02:12.325Z,101051.00
2022-08-25T11:05:06.821Z,101039.53
2022-08-25T11:07:38.003Z,101041.31
2022-08-25T11:10:19.839Z,101029.84
2022-08-25T11:12:54.267Z,101026.44
2022-08-25T11:15:29.078Z,101023.38
2022-08-25T11:18:03.893Z,101027.88
2022-08-25T11:20:40.661Z,101026.19
2022-08-25T11:23:27.572Z,101023.69
2022-08-25T11:26:00.817Z,101022.75
2022-08-25T11:28:39.465Z,101021.84
2022-08-25T11:31:09.833Z,101014.72
2022-08-25T11:33:39.283Z,101014.16
2022-08-25T11:36:29.575Z,101013.38
2022-08-25T11:39:15.489Z,101015.53
2022-08-25T11:41:53.343Z,101025.91
2022-08-25T11:44:53.354Z,101013.06
2022-08-25T11:47:35.824Z,101008.00
2022-08-25T11:50:04.252Z,101012.50
2022-08-25T11:52:34.685Z,101009.56
2022-08-25T11:55:16.889Z,101003.09
2022-08-25T11:57:46.793Z,101008.44
2022-08-25T12:00:38.927Z,101005.22
2022-08-25T12:03:32.300Z,101003.59
2022-08-25T12:06:17.743Z,100999.16
2022-08-25T12:08:57.551Z,100997.69
2022-08-25T12:11:44.548Z,101009.38
2022-08-25T12:14:14.041Z,101001.50
2022-08-25T12:17:04.814Z,100992.56
2022-08-25T12:19:34.279Z,100987.03
2022-08-25T12:22:04.411Z,100980.44
2022-08-25T12:24:48.020Z,100977.38
2022-08-25T12:27:38.607Z,100977.13
2022-08-25T12:30:21.020Z,100974.63
2022-08-25T12:33:15.727Z,100973.13
2022-08-25T12:36:00.951Z,100961.72
2022-08-25T12:38:46.289Z,100967.50
2022-08-25T12:41:24.412Z,100956.75
2022-08-25T12:43:53.965Z,100955.84
2022-08-25T12:46:24.070Z,100946.66
2022-08-25T12:49:29.241Z,100941.50
2022-08-25T12:52:06.054Z,100942.69
2022-08-25T12:54:52.923Z,100938.66
2022-08-25T12:57:29.598Z,100938.19
2022-08-25T12:59:59.173Z,100942.81
2022-08-25T13:03:05.359Z,100939.22
2022-08-25T13:06:00.079Z,100931.94
2022-08-25T13:08:27.110Z,100938.22
2022-08-25T13:11:17.161Z,100936.38
2022-08-25T13:13:49.803Z,100929.84
2022-08-25T13:16:24.573Z,100925.19
2022-08-25T13:18:59.454Z,100928.94
2022-08-25T13:21:43.374Z,100923.28
2022-08-25T13:24:18.600Z,100911.34
2022-08-25T13:26:48.451Z,100912.53
2022-08-25T13:29:20.837Z,100908.94
2022-08-25T13:32:12.653Z,100907.34
2022-08-25T13:34:42.562Z,100901.19
2022-08-25T13:37:29.607Z,100897.94
2022-08-25T13:40:11.117Z,100889.53
2022-08-25T13:42:44.305Z,100892.59
2022-08-25T13:45:17.253Z,100885.50
2022-08-25T13:47:45.985Z,100880.81
2022-08-25T13:50:28.309Z,100887.75
2022-08-25T13:53:13.925Z,100888.19
2022-08-25T13:55:55.056Z,100888.81
2022-08-25T13:58:32.529Z,100884.84
2022-08-25T14:01:45.970Z,100890.19
2022-08-25T14:04:50.793Z,100875.69
2022-08-25T14:07:21.134Z,100871.44
2022-08-25T14:09:53.568Z,100864.00
2022-08-25T14:12:47.738Z,100874.31
2022-08-25T14:15:22.056Z,100868.34
2022-08-25T14:18:01.840Z,100871.72
2022-08-25T14:20:31.527Z,100867.03
2022-08-25T14:23:02.567Z,100865.09
2022-08-25T14:25:31.291Z,100864.47
2022-08-25T14:28:25.478Z,100866.75
2022-08-25T14:31:05.376Z,100861.63
2022-08-25T14:33:43.384Z,100851.88
2022-08-25T14:36:20.715Z,100858.00
2022-08-25T14:38:47.834Z,100852.00
2022-08-25T14:41:23.609Z,100847.25
2022-08-25T14:43:50.323Z,100846.38
2022-08-25T14:46:23.543Z,100842.66
2022-08-25T14:48:55.433Z,100842.38
2022-08-25T14:51:23.726Z,100843.59
2022-08-25T14:53:53.998Z,100839.81
2022-08-25T14:56:20.674Z,100836.69
2022-08-25T14:58:50.856Z,100839.13
2022-08-25T15:01:28.727Z,100837.91
2022-08-25T15:04:01.801Z,100834.22
2022-08-25T15:06:28.580Z,100831.31
2022-08-25T15:09:08.105Z,100826.75
2022-08-25T15:11:36.506Z,100826.88
2022-08-25T15:14:09.424Z,100828.25
2022-08-25T15:16:42.429Z,100824.59
2022-08-25T15:19:14.315Z,100818.44
2022-08-25T15:21:44.199Z,100810.19
2022-08-25T15:24:11.984Z,100814.31
2022-08-25T15:29:17.540Z,100807.19
2022-08-25T15:31:44.382Z,100797.44
2022-08-25T15:34:12.147Z,100795.53
2022-08-25T15:36:39.046Z,100794.94
2022-08-25T15:39:06.435Z,100791.25
2022-08-25T15:41:33.018Z,100792.53
2022-08-25T15:43:59.937Z,100793.03
2022-08-25T15:46:30.238Z,100781.00
2022-08-25T15:48:59.465Z,100791.44
2022-08-25T15:51:27.905Z,100782.66
2022-08-25T15:53:55.574Z,100784.44
2022-08-25T15:56:26.718Z,100786.75
2022-08-25T15:58:55.684Z,100782.16
2022-08-25T16:01:26.349Z,100782.19
2022-08-25T16:03:53.923Z,100782.97
2022-08-25T16:06:20.980Z,100786.59
2022-08-25T16:08:48.249Z,100781.63
2022-08-25T16:11:24.405Z,100780.47
2022-08-25T16:13:52.546Z,100774.13
2022-08-25T16:16:20.979Z,100773.72
2022-08-25T16:18:47.755Z,100782.53
2022-08-25T16:21:17.502Z,100774.47
2022-08-25T16:23:45.116Z,100777.91
2022-08-25T16:26:12.948Z,100772.91
2022-08-25T16:28:43.715Z,100763.81
2022-08-25T16:31:12.793Z,100772.84
2022-08-25T16:33:39.938Z,100778.53
2022-08-25T16:36:15.997Z,100775.06
2022-08-25T16:38:48.800Z,100773.16
2022-08-25T16:41:34.260Z,100763.16
2022-08-25T16:44:06.399Z,100768.69
2022-08-25T16:46:33.514Z,100770.91
2022-08-25T16:49:01.874Z,100778.19
2022-08-25T16:51:29.782Z,100770.06
2022-08-25T16:54:21.983Z,100769.47
2022-08-25T16:56:50.768Z,100769.22
2022-08-25T16:59:23.335Z,100764.56
2022-08-25T17:01:50.684Z,100764.84
2022-08-25T17:04:17.438Z,100769.22
2022-08-25T17:06:49.344Z,100769.16
2022-08-25T17:09:23.747Z,100766.78
2022-08-25T17:11:54.358Z,100770.94
2022-08-25T17:14:21.832Z,100766.44
2022-08-25T17:16:48.706Z,100770.44
2022-08-25T17:19:17.643Z,100758.31
2022-08-25T17:21:46.096Z,100769.75
2022-08-25T17:24:14.210Z,100765.66
2022-08-25T17:26:42.430Z,100767.16
2022-08-25T17:29:09.831Z,100768.00
2022-08-25T17:31:39.711Z,100765.03
2022-08-25T17:34:10.609Z,100772.78
2022-08-25T17:36:37.975Z,100770.94
2022-08-25T17:39:08.718Z,100766.75
2022-08-25T17:41:37.840Z,100765.69
2022-08-25T17:44:05.292Z,100776.66
2022-08-25T17:46:32.861Z,100771.03
2022-08-25T17:48:59.487Z,100772.03
2022-08-25T17:51:26.027Z,100775.78
2022-08-25T17:53:56.954Z,100773.25
2022-08-25T17:56:24.270Z,100773.00
2022-08-25T17:58:55.398Z,100785.13
2022-08-25T18:01:34.258Z,100778.03
2022-08-25T18:04:00.977Z,100776.59
2022-08-25T18:06:29.588Z,100779.56
2022-08-25T18:09:00.206Z,100778.72
2022-08-25T18:11:28.716Z,100779.22
2022-08-25T18:13:56.696Z,100784.28
2022-08-25T18:16:24.664Z,100778.25
2022-08-25T18:18:52.884Z,100788.03
2022-08-25T18:21:20.507Z,100782.69
2022-08-25T18:23:47.776Z,100779.22
2022-08-25T18:26:15.477Z,100796.50
2022-08-25T18:28:43.944Z,100782.16
2022-08-25T18:31:12.061Z,100796.28
2022-08-25T18:33:42.007Z,100791.75
2022-08-25T18:36:09.685Z,100784.94
2022-08-25T18:38:58.160Z,100794.63
2022-08-25T18:41:26.770Z,100787.19
2022-08-25T18:43:53.557Z,100792.25
2022-08-25T18:46:22.576Z,100796.50
2022-08-25T18:48:53.008Z,100795.06
2022-08-25T18:51:22.961Z,100797.25
2022-08-25T18:53:51.158Z,100795.25
2022-08-25T18:56:22.368Z,100795.84
2022-08-25T18:58:48.906Z,100789.13
2022-08-25T19:01:18.277Z,100796.44
2022-08-25T19:03:45.564Z,100797.22
2022-08-25T19:06:12.415Z,100800.13
2022-08-25T19:08:41.604Z,100803.53
2022-08-25T19:11:09.797Z,100791.97
2022-08-25T19:13:37.142Z,100801.59
2022-08-25T19:16:29.935Z,100794.09
2022-08-25T19:18:56.635Z,100810.72
2022-08-25T19:21:25.200Z,100806.06
2022-08-25T19:23:52.338Z,100808.47
2022-08-25T19:26:19.666Z,100803.31
2022-08-25T19:28:48.804Z,100807.50
2022-08-25T19:31:18.310Z,100800.25
2022-08-25T19:33:46.715Z,100812.19
2022-08-25T19:36:13.986Z,100814.28
2022-08-25T19:38:40.921Z,100815.63
2022-08-25T19:41:09.399Z,100813.50
2022-08-25T19:43:55.755Z,100812.00
2022-08-25T19:46:33.370Z,100817.41
2022-08-25T19:49:09.028Z,100809.69
2022-08-25T19:51:38.115Z,100816.94
2022-08-25T19:54:06.448Z,100807.09
2022-08-25T19:56:36.225Z,100816.16
2022-08-25T19:59:03.696Z,100819.28
2022-08-25T20:01:30.300Z,100814.38
2022-08-25T20:03:57.008Z,100810.25
2022-08-25T20:06:23.910Z,100820.88
2022-08-25T20:08:58.860Z,100815.19
2022-08-25T20:11:28.930Z,100817.50
2022-08-25T20:13:59.270Z,100828.31
2022-08-25T20:16:28.294Z,100817.75
2022-08-25T20:18:54.901Z,100818.50
2022-08-25T20:21:21.468Z,100812.56
2022-08-25T20:24:07.232Z,100820.31
2022-08-25T20:26:33.868Z,100818.22
2022-08-25T20:29:00.569Z,100813.84
2022-08-25T20:31:27.110Z,100819.00
2022-08-25T20:33:57.375Z,100815.38
2022-08-25T20:36:26.860Z,100800.84
2022-08-25T20:38:53.440Z,100806.53
2022-08-25T20:41:20.134Z,100802.63
2022-08-25T20:43:46.694Z,100801.84
2022-08-25T20:46:13.461Z,100808.28
2022-08-25T20:48:40.093Z,100805.69
2022-08-25T20:51:08.470Z,100808.75
2022-08-25T20:53:36.825Z,100808.25
2022-08-25T20:56:10.525Z,100805.88
2022-08-25T20:58:38.658Z,100805.88
2022-08-25T21:01:09.657Z,100806.59
2022-08-25T21:03:37.249Z,100814.56
2022-08-25T21:06:08.637Z,100814.03
2022-08-25T21:08:46.552Z,100811.72
2022-08-25T21:11:15.567Z,100816.34
2022-08-25T21:13:42.081Z,100806.22
2022-08-25T21:18:53.059Z,100816.81
2022-08-25T21:21:19.840Z,100821.41
2022-08-25T21:23:49.545Z,100821.16
2022-08-25T21:26:17.718Z,100822.41
2022-08-25T21:28:47.743Z,100817.47
2022-08-25T21:31:15.448Z,100824.16
2022-08-25T21:33:43.053Z,100815.34
2022-08-25T21:36:11.186Z,100819.19
2022-08-25T21:38:38.208Z,100815.56
2022-08-25T21:41:15.596Z,100820.09
2022-08-25T21:43:42.522Z,100815.44
2022-08-25T21:46:14.503Z,100822.34
2022-08-25T21:48:41.479Z,100826.16
2022-08-25T21:51:09.780Z,100837.16
2022-08-25T21:53:36.931Z,100841.78
2022-08-25T21:56:11.209Z,100832.19
2022-08-25T21:58:38.906Z,100831.94
2022-08-25T22:01:11.170Z,100825.19
2022-08-25T22:03:40.915Z,100833.97
2022-08-25T22:06:08.221Z,100828.22
2022-08-25T22:08:37.953Z,100827.97
2022-08-25T22:11:06.448Z,100830.78
2022-08-25T22:13:34.474Z,100834.56
2022-08-25T22:16:00.995Z,100826.22
2022-08-25T22:18:28.419Z,100828.94
2022-08-25T22:20:55.035Z,100829.94
2022-08-25T22:23:22.658Z,100824.22
2022-08-25T22:25:55.377Z,100825.50
2022-08-25T22:28:22.554Z,100831.38
2022-08-25T22:30:50.177Z,100833.38
2022-08-25T22:33:16.938Z,100830.28
2022-08-25T22:35:43.472Z,100827.94
2022-08-25T22:38:12.444Z,100826.28
2022-08-25T22:40:40.954Z,100831.13
2022-08-25T22:43:10.972Z,100831.53
2022-08-25T22:45:37.746Z,100831.47
2022-08-25T22:48:05.524Z,100839.59
2022-08-25T22:50:36.238Z,100840.59
2022-08-25T22:53:02.855Z,100840.03
2022-08-25T22:55:30.863Z,100843.84
2022-08-25T22:57:57.400Z,100832.47
2022-08-25T23:00:24.096Z,100842.19
2022-08-25T23:02:53.187Z,100843.97
2022-08-25T23:05:20.033Z,100843.13
2022-08-25T23:07:47.300Z,100845.59
2022-08-25T23:10:14.231Z,100841.41
2022-08-25T23:12:43.874Z,100846.78
2022-08-25T23:15:12.080Z,100841.53
2022-08-25T23:17:38.659Z,100840.97
2022-08-25T23:20:27.180Z,100839.91
2022-08-25T23:22:54.626Z,100839.81
2022-08-25T23:25:21.469Z,100840.78
2022-08-25T23:27:48.195Z,100838.13
2022-08-25T23:30:18.421Z,100839.59
2022-08-25T23:32:44.970Z,100835.13
2022-08-25T23:35:13.789Z,100838.94
2022-08-25T23:37:40.293Z,100838.63
2022-08-25T23:40:10.001Z,100837.88
2022-08-25T23:42:36.507Z,100838.06
2022-08-25T23:45:04.379Z,100842.56
2022-08-25T23:47:30.898Z,100834.75
2022-08-25T23:49:58.890Z,100839.06
2022-08-25T23:52:26.405Z,100829.97
2022-08-25T23:54:52.990Z,100833.50
2022-08-25T23:57:19.511Z,100832.13
2022-08-25T23:59:46.033Z,100837.31
